Allport, Pennsylvania
Current Conditions -  °F | °C
As of 4:54 PM on Thursday 27 Nov 2014 (Local Time) from KFIG Reporting Station
Light Snow Light Snow  
Wind Chill: 26°   Ceiling: 6000
Heat Index: 32°   Visibility: 7mi
Dew Point: 27°   Wind: 6mph
Humidity: 82%   Direction: 270°W
Pressure: 30.04"   Gusts: NA
Location:  40.96°N, 78.2°W
Report Text: KFIG 272154Z AUTO 27005KT 7SM -SN OVC060 00/M03 A3004 RMK AO2 SNB28 SLP189 P0000 T00001028
Loading
Personal Weather Stations






























Interactive Weather Map New forecast layout! Learn more

10-Day Weather Forecast

Advertisements
Track Severe Weather on mobile